Pittston, PA

8:04 AM EDT on August 26, 2016 (GMT -0400)
Wilkes-Barre-Scranton International | | Change Station

Elev 961 ft 41.33 °N, 75.72 °W | Updated 10 minutes ago

Overcast
Overcast
75 °F
Feels Like 75 °F
N
5
Wind Variable Wind from WSW

Today
High -- | Low -- °F
--% Chance of Precip.
Yesterday
High -- | Low -- °F
Precip. -- in
Pressure 30.03 in
Visibility 7.0 miles
Clouds Scattered Clouds 1300 ft
Scattered Clouds 2500 ft
Overcast 3100 ft
Dew Point 72 °F
Humidity 90%
Rainfall 0.00 in
Snow Depth Not available.
6:23 AM 7:44 PM
Waning Crescent, 35% visible
METAR KAVP 261154Z AUTO 24004KT 7SM SCT013 SCT025 OVC031 24/22 A3005 RMK AO2 SLP167 60000 T02390222 10244 20217 50011
Pressure 30.03 in
Visibility 7.0 miles
Clouds Scattered Clouds 1300 ft
Scattered Clouds 2500 ft
Overcast 3100 ft
Dew Point 72 °F
Humidity 90%
Rainfall 0.00 in
Snow Depth Not available.
6:23 AM 7:44 PM
Waning Crescent, 35% visible
METAR KAVP 261154Z AUTO 24004KT 7SM SCT013 SCT025 OVC031 24/22 A3005 RMK AO2 SLP167 60000 T02390222 10244 20217 50011

10-Day Weather Forecast

Almanac

Astronomy

Aug. 26, 2016 Rise Set
Actual Time
Civil Twilight
Nautical Twilight
Astronomical Twilight
Moon
Length of Visible Light
Length of Day
Tomorrow will be .
, % of the Moon is Illuminated

Today's Extremes

State Highs State Lows

Community

WunderPhotos

Upload Photos

1,935,077 photos uploaded!

WunderBlog® & News

Nearby

Air Quality

  Air Quality AQ Index Pollutant
Not available.

Snow Depth

Station Depth Elevation

Earthquake Activity

City Distance Mag. Time & Date
Minimum magnitude displayed is 2.5.

Coastal Water Temperatures

Place Temperature

Stations

Nearby Weather Stations

Station Location Temp. Windchill Dew Point Humidity Wind Precip. Elev Updated Type
                   

Watches & Warnings

There are currently no watches in effect.